الصفحة الرئيسية
METAR-TAF:

METAR-TAF

مطار :

مطار تان سون نهات الدولي

هو تشي منه, فيتنام

دائرة عرض: 10-49N, خط طول: 106-40E, ارتفاع: 19 متر

مراقبة الطقس الحالي

تاريخ ووقت الإصدار 37 دقيقة قبل الساعة 09:00UTC
ريح 9 عقدة من الجنوب/الجنوب الشرقي, الاتجاه يتراوح بين الشرق/الجنوب الشرقي و الجنوب/الجنوب الغربي
درجة الحرارة 35°درجة مئوية
الرطوبة 47%
ضغط 1004 hPa
الرؤية 10 كم أو أكثر
غيوم قليلة على ارتفاع 2700 قدم

METAR: VVTS 190900Z 15009KT 120V200 9999 FEW027 35/22 Q1004 NOSIG

زمن: 16:37 (09:37 UTC)

توقعات

تاريخ ووقت الإصدار 4ساعات و 37 دقيقة قبل الساعة 05:00UTC
التوقعات صالحة من19 الساعة 06 UTC إلى 20 الساعة 12 UTC
ريح 10 عقدة من الجنوب/الجنوب الشرقي
الرؤية 10 كم أو أكثر
غيوم متفرقة على ارتفاع 2000 قدم

TAF: VVTS 190500Z 1906/2012 16010KT 9999 SCT020

أرصاد الطقس والتوقعات من أكثر من 4000 مطار (تقارير الطقس للمطار METAR والتنبؤ بالطقس بالمطارTAF).

المحطات المتاحة هي النقط الصفراء والحمراء على الخريطة.

حرك المؤشر فوق النقطة لمعرفة اسم المحطة.

ثم انقر لمعرفة أرصاد وتوقعات الطقس.

لتغيير الخارطة: اضغط على الأزرار الخضراء مع رمز الصليب الأسود للتكبير. على الزر الأخضر مع شرطة للتصغير، أو على الأسهم الخضراء للخرائط المجاورة.


METAR-TAF: